Time;durP1;ratioP1;P1;durP2;ratioP2;P2;SDS_P1;SDS_P2;PMS_P1;PMS_P2;Temp;Humidity;BMP_temperature;BMP_pressure;BME280_temperature;BME280_humidity;BME280_pressure;Samples;Min_cycle;Max_cycle;Signal;HPM_P1;HPM_P2
2022/09/11 00:01:39;;;;;;;;;9.75;8.75;;;;;18.76;63.33;101336.41;5068803;27;45280;-49
2022/09/11 00:04:05;;;;;;;;;11.00;10.00;;;;;18.74;63.80;101339.13;5066408;27;45633;-44
2022/09/11 00:06:31;;;;;;;;;6.75;6.25;;;;;18.73;63.44;101342.75;5061755;28;56052;-46
2022/09/11 00:09:02;;;;;;;;;8.00;7.00;;;;;18.74;63.27;101341.78;5075244;27;71680;-44
2022/09/11 00:11:32;;;;;;;;;10.75;8.50;;;;;18.74;63.57;101340.94;5074645;27;45375;-45
2022/09/11 00:13:58;;;;;;;;;7.75;7.50;;;;;18.73;63.59;101339.22;5055528;27;45429;-50
2022/09/11 00:16:35;;;;;;;;;9.50;9.25;;;;;18.71;63.42;101335.78;5083055;27;45520;-44
2022/09/11 00:19:07;;;;;;;;;9.50;9.50;;;;;18.70;63.45;101336.75;5063139;27;46202;-48
2022/09/11 00:21:33;;;;;;;;;12.25;8.00;;;;;18.68;63.50;101327.97;5074804;27;45867;-46
2022/09/11 00:23:58;;;;;;;;;12.00;10.00;;;;;18.68;63.73;101330.63;5061471;28;45511;-45
2022/09/11 00:26:24;;;;;;;;;8.75;8.50;;;;;18.68;63.63;101328.84;5076100;27;45438;-46
2022/09/11 00:28:51;;;;;;;;;11.50;9.25;;;;;18.68;63.50;101335.94;5052427;27;45484;-45
2022/09/11 00:31:18;;;;;;;;;9.75;9.25;;;;;18.66;63.71;101327.19;5056891;28;45785;-45
2022/09/11 00:33:44;;;;;;;;;18.25;11.25;;;;;18.65;63.70;101326.34;5057940;27;45447;-48
2022/09/11 00:36:15;;;;;;;;;15.00;12.25;;;;;18.63;63.87;101324.69;5074858;27;45227;-45
2022/09/11 00:38:41;;;;;;;;;11.00;10.00;;;;;18.65;63.89;101326.34;5059667;28;46259;-46
2022/09/11 00:41:18;;;;;;;;;10.50;10.25;;;;;18.65;63.70;101329.00;5080117;27;45431;-45
2022/09/11 00:44:14;;;;;;;;;11.00;10.00;;;;;18.65;63.67;101330.81;5058341;28;45480;-48
2022/09/11 00:46:42;;;;;;;;;13.00;8.50;;;;;18.63;63.87;101325.59;5037207;27;45471;-46
2022/09/11 00:49:50;;;;;;;;;12.25;10.75;;;;;18.63;63.64;101320.28;5047909;27;47324;-47
2022/09/11 00:52:22;;;;;;;;;10.75;10.75;;;;;18.63;63.93;101322.06;5021925;28;45674;-46
2022/09/11 00:55:09;;;;;;;;;14.25;10.50;;;;;18.62;63.82;101317.72;5028691;28;45648;-44
2022/09/11 00:57:39;;;;;;;;;12.75;10.75;;;;;18.61;63.94;101316.84;5038846;27;45297;-47
2022/09/11 01:00:07;;;;;;;;;13.00;10.25;;;;;18.60;63.81;101312.47;5076274;27;45440;-46
2022/09/11 01:02:34;;;;;;;;;12.75;12.25;;;;;18.60;63.67;101313.31;5067817;27;45163;-47
2022/09/11 01:04:59;;;;;;;;;12.50;10.00;;;;;18.61;63.72;101314.22;5053365;28;45514;-46
2022/09/11 01:07:26;;;;;;;;;13.75;10.50;;;;;18.59;63.67;101308.97;5076489;27;45283;-45
2022/09/11 01:09:52;;;;;;;;;10.75;10.75;;;;;18.59;63.63;101306.31;5080280;27;45399;-48
2022/09/11 01:12:28;;;;;;;;;13.00;11.00;;;;;18.59;64.15;101301.03;5055712;28;45943;-46
2022/09/11 01:15:05;;;;;;;;;12.75;11.00;;;;;18.59;63.91;101297.50;5065155;27;45454;-45
2022/09/11 01:17:43;;;;;;;;;14.00;10.75;;;;;18.58;63.69;101301.09;5060268;28;45403;-46
2022/09/11 01:20:42;;;;;;;;;16.00;12.00;;;;;18.58;63.82;101295.81;5070190;27;46042;-45
2022/09/11 01:23:55;;;;;;;;;13.25;11.00;;;;;18.58;63.92;101304.59;5054775;28;45568;-50
2022/09/11 01:27:05;;;;;;;;;10.75;10.25;;;;;18.56;63.94;101295.88;5006747;28;45543;-46
2022/09/11 01:29:40;;;;;;;;;15.75;12.75;;;;;18.54;63.93;101300.41;5033276;28;45474;-44
2022/09/11 01:32:17;;;;;;;;;11.25;9.25;;;;;18.54;63.75;101303.06;5073512;27;45475;-46
2022/09/11 01:34:53;;;;;;;;;14.50;11.00;;;;;18.53;63.69;101303.13;5067289;27;45924;-46
2022/09/11 01:37:50;;;;;;;;;11.75;11.00;;;;;18.52;63.90;101298.75;5052856;28;45446;-47
2022/09/11 01:40:43;;;;;;;;;12.50;10.75;;;;;18.51;63.88;101299.69;5059049;27;45250;-45
2022/09/11 01:43:20;;;;;;;;;14.25;12.25;;;;;18.51;63.73;101297.91;5057368;27;46331;-44
2022/09/11 01:45:47;;;;;;;;;15.25;12.75;;;;;18.48;63.90;101292.75;5065944;28;45261;-44
2022/09/11 01:48:17;;;;;;;;;17.00;13.00;;;;;18.47;63.91;101299.00;5074457;28;64869;-44
2022/09/11 01:50:45;;;;;;;;;13.75;12.75;;;;;18.45;63.95;101292.94;5039159;28;45396;-44
2022/09/11 01:53:13;;;;;;;;;12.25;10.25;;;;;18.45;64.00;101292.94;5054326;28;45343;-45
2022/09/11 01:55:45;;;;;;;;;15.75;13.00;;;;;18.44;64.03;101300.94;5076030;27;45773;-46
2022/09/11 01:58:14;;;;;;;;;13.75;12.50;;;;;18.42;64.24;101298.38;5054541;28;45357;-44
2022/09/11 02:00:41;;;;;;;;;15.50;10.25;;;;;18.42;64.01;101295.72;5053114;28;45477;-46
2022/09/11 02:03:24;;;;;;;;;11.75;10.50;;;;;18.43;64.33;101296.56;5052741;28;46118;-48
2022/09/11 02:05:59;;;;;;;;;15.25;11.50;;;;;18.43;64.13;101294.78;5050375;28;45329;-45
2022/09/11 02:08:43;;;;;;;;;14.75;10.75;;;;;18.41;64.40;101288.69;5078513;27;45573;-44
2022/09/11 02:11:10;;;;;;;;;12.50;10.25;;;;;18.41;63.99;101294.00;5072716;28;45515;-46
2022/09/11 02:13:44;;;;;;;;;14.50;13.50;;;;;18.40;64.11;101292.31;5055605;27;45362;-45
2022/09/11 02:16:49;;;;;;;;;17.25;13.25;;;;;18.38;64.40;101289.72;5074044;27;45816;-45
2022/09/11 02:19:19;;;;;;;;;31.75;26.50;;;;;18.38;64.23;101286.22;5058568;28;45248;-44
2022/09/11 02:21:46;;;;;;;;;20.25;18.75;;;;;18.39;64.24;101285.28;5075309;27;45387;-46
2022/09/11 02:24:13;;;;;;;;;17.25;16.25;;;;;18.38;64.45;101292.38;5056185;27;46355;-46
2022/09/11 02:26:44;;;;;;;;;23.25;14.75;;;;;18.38;64.29;101288.88;5052284;27;45297;-45
2022/09/11 02:29:11;;;;;;;;;23.25;15.50;;;;;18.39;64.43;101293.22;5058572;27;45474;-44
2022/09/11 02:31:36;;;;;;;;;19.75;16.50;;;;;18.38;64.34;101287.06;5067081;27;47203;-45
2022/09/11 02:34:02;;;;;;;;;15.50;12.75;;;;;18.40;64.19;101287.00;5052931;28;46236;-44
2022/09/11 02:36:30;;;;;;;;;18.25;12.75;;;;;18.40;64.32;101292.31;5054160;28;45416;-46
2022/09/11 02:39:40;;;;;;;;;25.00;19.00;;;;;18.40;64.21;101294.97;5072148;27;45318;-48
2022/09/11 02:42:17;;;;;;;;;16.00;13.75;;;;;18.38;64.30;101300.31;5054002;27;45468;-47
2022/09/11 02:44:47;;;;;;;;;16.50;13.75;;;;;18.37;64.11;101300.41;5062517;28;46542;-45
2022/09/11 02:47:48;;;;;;;;;16.50;15.50;;;;;18.36;64.50;101299.56;5070190;27;45879;-44
2022/09/11 02:50:41;;;;;;;;;17.25;13.00;;;;;18.35;64.48;101296.97;5069332;27;46132;-48
2022/09/11 02:53:16;;;;;;;;;18.25;14.50;;;;;18.34;64.40;101293.47;5061395;27;45301;-46
2022/09/11 02:56:18;;;;;;;;;14.00;13.50;;;;;18.33;64.20;101289.09;5080644;27;46029;-47
2022/09/11 02:58:54;;;;;;;;;18.25;16.00;;;;;18.33;64.24;101296.19;5077355;27;45459;-46
2022/09/11 03:01:20;;;;;;;;;19.75;13.75;;;;;18.31;64.16;101296.28;5060042;28;45593;-45
2022/09/11 03:03:45;;;;;;;;;21.25;16.25;;;;;18.30;64.36;101291.91;5050129;27;45510;-47
2022/09/11 03:06:17;;;;;;;;;13.75;13.50;;;;;18.29;64.33;101289.31;5080715;27;67849;-47
2022/09/11 03:08:42;;;;;;;;;18.25;15.00;;;;;18.28;64.29;101291.13;5071121;27;45233;-46
2022/09/11 03:11:08;;;;;;;;;13.25;12.25;;;;;18.29;64.29;101291.97;5062657;28;45554;-45
2022/09/11 03:13:34;;;;;;;;;17.00;14.50;;;;;18.28;64.50;101292.94;5081101;27;45357;-46
2022/09/11 03:16:00;;;;;;;;;12.00;12.00;;;;;18.26;64.44;101293.00;5059319;28;47120;-46
2022/09/11 03:18:25;;;;;;;;;16.00;12.00;;;;;18.26;64.33;101294.78;5076521;27;45565;-46
2022/09/11 03:20:50;;;;;;;;;18.00;16.25;;;;;18.25;64.66;101291.28;5044130;28;45383;-45
2022/09/11 03:23:16;;;;;;;;;16.00;14.00;;;;;18.23;64.43;101293.16;5061309;28;54289;-47
2022/09/11 03:25:41;;;;;;;;;19.50;13.25;;;;;18.24;64.67;101289.56;5063377;28;47219;-49
2022/09/11 03:28:07;;;;;;;;;18.50;16.00;;;;;18.23;64.56;101281.69;5058215;28;45270;-45
2022/09/11 03:30:32;;;;;;;;;15.50;14.00;;;;;18.21;64.45;101279.97;5043554;28;45351;-46
2022/09/11 03:32:59;;;;;;;;;20.25;14.25;;;;;18.21;64.67;101284.41;5078820;27;45452;-42
2022/09/11 03:35:25;;;;;;;;;18.25;14.25;;;;;18.21;64.58;101293.22;5079655;27;46326;-46
2022/09/11 03:37:51;;;;;;;;;23.75;21.50;;;;;18.20;64.67;101288.00;5072824;27;45301;-44
2022/09/11 03:40:19;;;;;;;;;32.75;26.25;;;;;18.18;64.52;101287.22;5081426;27;45439;-44
2022/09/11 03:42:44;;;;;;;;;23.00;17.50;;;;;18.16;64.64;101286.44;5076259;27;45502;-44
2022/09/11 03:45:09;;;;;;;;;22.00;18.75;;;;;18.13;64.66;101281.28;5076675;27;45460;-44
2022/09/11 03:47:36;;;;;;;;;19.25;15.75;;;;;18.14;64.59;101288.31;5075818;27;72761;-44
2022/09/11 03:50:01;;;;;;;;;23.75;16.75;;;;;18.13;64.49;101283.94;5058512;27;45602;-43
2022/09/11 03:52:29;;;;;;;;;19.25;15.75;;;;;18.12;64.65;101296.34;5060878;28;45347;-45
2022/09/11 03:54:54;;;;;;;;;19.00;14.50;;;;;18.07;64.60;101279.81;5069520;27;47197;-46
2022/09/11 03:57:19;;;;;;;;;17.75;13.25;;;;;18.10;64.52;101292.06;5079951;27;45295;-45
2022/09/11 03:59:45;;;;;;;;;17.00;13.75;;;;;18.08;64.69;101286.84;5066446;27;62073;-43
2022/09/11 04:02:10;;;;;;;;;17.75;13.75;;;;;18.09;64.80;101283.22;5072016;27;69372;-45
2022/09/11 04:04:36;;;;;;;;;19.75;13.00;;;;;18.06;64.78;101288.72;5052917;28;45481;-44
2022/09/11 04:07:01;;;;;;;;;18.00;14.25;;;;;18.02;64.74;101285.34;5073089;27;45297;-43
2022/09/11 04:09:26;;;;;;;;;15.75;12.75;;;;;18.02;64.76;101282.69;5074949;27;45346;-44
2022/09/11 04:11:52;;;;;;;;;17.50;14.00;;;;;17.99;64.84;101282.00;5078664;27;45229;-47
2022/09/11 04:14:18;;;;;;;;;19.75;16.25;;;;;17.96;64.82;101274.19;5078601;27;45335;-45
2022/09/11 04:16:43;;;;;;;;;18.00;13.75;;;;;17.93;64.76;101277.84;5075459;27;45903;-45
2022/09/11 04:19:09;;;;;;;;;20.25;15.25;;;;;17.94;64.59;101284.00;5074057;27;45529;-46
2022/09/11 04:21:34;;;;;;;;;16.50;13.75;;;;;17.94;64.76;101286.66;5078844;27;45595;-44
2022/09/11 04:24:00;;;;;;;;;20.75;15.50;;;;;17.92;64.55;101292.03;5076393;27;45295;-45
2022/09/11 04:26:28;;;;;;;;;14.50;13.25;;;;;17.92;64.67;101292.03;5077705;27;45452;-45
2022/09/11 04:28:53;;;;;;;;;22.75;15.50;;;;;17.90;64.86;101288.59;5075594;27;45518;-47
2022/09/11 04:31:19;;;;;;;;;16.75;16.50;;;;;17.91;64.60;101284.16;5074431;27;69969;-45
2022/09/11 04:33:45;;;;;;;;;15.25;13.00;;;;;17.91;64.60;101289.44;5080008;27;46136;-45
2022/09/11 04:36:16;;;;;;;;;13.00;12.25;;;;;17.90;64.75;101296.53;5071586;27;45438;-46
2022/09/11 04:38:42;;;;;;;;;19.25;16.75;;;;;17.89;64.77;101292.16;5077506;27;46750;-44
2022/09/11 04:41:08;;;;;;;;;17.00;13.75;;;;;17.85;64.86;101293.22;5076332;27;45629;-48
2022/09/11 04:43:35;;;;;;;;;14.50;13.00;;;;;17.83;64.97;101295.09;5074955;27;46183;-44
2022/09/11 04:46:05;;;;;;;;;20.25;14.00;;;;;17.79;64.85;101299.66;5072111;27;45250;-44
2022/09/11 04:48:30;;;;;;;;;17.00;14.00;;;;;17.76;64.72;101299.81;5073733;27;45331;-47
2022/09/11 04:51:06;;;;;;;;;18.00;15.50;;;;;17.74;64.83;101298.16;5069436;28;68720;-44
2022/09/11 04:53:32;;;;;;;;;17.00;13.00;;;;;17.74;64.90;101298.16;5069345;27;46201;-50
2022/09/11 04:56:02;;;;;;;;;13.50;13.50;;;;;17.73;64.99;101299.97;5069956;27;45300;-45
2022/09/11 04:58:28;;;;;;;;;16.50;15.00;;;;;17.73;64.86;101307.06;5077325;27;45481;-46
2022/09/11 05:00:53;;;;;;;;;16.25;12.75;;;;;17.71;64.79;101308.91;5079417;27;45517;-50
2022/09/11 05:03:19;;;;;;;;;13.50;11.25;;;;;17.69;64.80;101311.63;5076949;27;45343;-47
2022/09/11 05:05:45;;;;;;;;;17.50;12.50;;;;;17.65;65.01;101315.34;5071510;27;45518;-46
2022/09/11 05:08:10;;;;;;;;;15.00;12.25;;;;;17.59;64.94;101315.66;5076506;27;45302;-45
2022/09/11 05:10:37;;;;;;;;;18.25;15.50;;;;;17.55;64.75;101316.72;5071991;28;72955;-45
2022/09/11 05:13:02;;;;;;;;;15.75;14.00;;;;;17.53;65.07;101315.91;5049638;28;47224;-47
2022/09/11 05:15:30;;;;;;;;;15.25;12.25;;;;;17.50;64.91;101324.03;5076156;27;63013;-45
2022/09/11 05:17:56;;;;;;;;;16.00;12.00;;;;;17.49;64.90;101323.13;5067299;27;45220;-46
2022/09/11 05:20:21;;;;;;;;;14.25;12.00;;;;;17.48;64.85;101328.53;5074023;27;45222;-44
2022/09/11 05:22:46;;;;;;;;;14.50;13.00;;;;;17.46;64.77;101331.25;5079223;27;60140;-44
2022/09/11 05:25:12;;;;;;;;;17.50;12.75;;;;;17.41;64.82;101320.88;5077547;28;51118;-44
2022/09/11 05:27:37;;;;;;;;;13.75;11.00;;;;;17.38;64.91;101326.28;5072931;27;45497;-44
2022/09/11 05:30:04;;;;;;;;;16.50;13.25;;;;;17.35;64.82;101328.22;5073540;27;45485;-46
2022/09/11 05:32:29;;;;;;;;;19.50;14.50;;;;;17.32;65.01;101329.22;5075204;27;47561;-49
2022/09/11 05:34:54;;;;;;;;;20.75;14.75;;;;;17.29;65.33;101341.75;5060452;27;46021;-49
2022/09/11 05:37:20;;;;;;;;;18.75;15.25;;;;;17.27;65.15;101344.44;5046639;28;64821;-48
2022/09/11 05:39:45;;;;;;;;;15.50;14.75;;;;;17.22;65.45;101343.78;5076522;27;68076;-48
2022/09/11 05:42:10;;;;;;;;;20.75;16.00;;;;;17.19;65.38;101339.50;5073871;27;50950;-45
2022/09/11 05:44:36;;;;;;;;;26.00;18.75;;;;;17.14;65.41;101337.97;5053704;28;63599;-44
2022/09/11 05:47:01;;;;;;;;;18.25;13.75;;;;;17.10;65.65;101344.34;5042124;27;45508;-44
2022/09/11 05:49:26;;;;;;;;;17.00;14.50;;;;;17.08;65.69;101341.75;5066678;27;66043;-44
2022/09/11 05:51:52;;;;;;;;;16.75;14.50;;;;;17.07;65.56;101355.94;5048184;28;46293;-45
2022/09/11 05:54:17;;;;;;;;;16.50;15.50;;;;;17.06;65.46;101348.91;5077974;28;65732;-48
2022/09/11 05:56:42;;;;;;;;;22.00;19.00;;;;;17.05;65.83;101350.72;5069548;27;67056;-43
2022/09/11 05:59:14;;;;;;;;;13.50;11.25;;;;;17.04;65.92;101354.25;5074744;27;66092;-45
2022/09/11 06:01:41;;;;;;;;;17.50;15.75;;;;;17.05;66.05;101358.63;5076662;27;45909;-49
2022/09/11 06:04:11;;;;;;;;;19.75;16.75;;;;;17.05;65.75;101361.28;5078306;27;45616;-48
2022/09/11 06:06:37;;;;;;;;;24.75;17.75;;;;;17.07;65.88;101364.72;5074416;27;45414;-50
2022/09/11 06:09:03;;;;;;;;;19.75;12.00;;;;;17.08;66.09;101365.56;5076591;27;46037;-48
2022/09/11 06:11:29;;;;;;;;;17.25;15.75;;;;;17.08;66.08;101362.91;5077740;27;46426;-45
2022/09/11 06:13:55;;;;;;;;;20.50;17.50;;;;;17.08;65.95;101358.47;5060031;28;45269;-49
2022/09/11 06:16:21;;;;;;;;;18.50;18.00;;;;;17.09;66.20;101359.38;5073649;27;65464;-47
2022/09/11 06:18:48;;;;;;;;;26.50;19.50;;;;;17.08;66.11;101361.13;5072208;27;45471;-48
2022/09/11 06:21:18;;;;;;;;;23.00;19.75;;;;;17.10;66.40;101361.06;5054374;28;47373;-47
2022/09/11 06:23:44;;;;;;;;;16.00;14.75;;;;;17.10;66.11;101370.78;5069257;28;46014;-46
2022/09/11 06:26:11;;;;;;;;;20.25;16.25;;;;;17.10;66.01;101362.84;5070715;27;45294;-46
2022/09/11 06:28:38;;;;;;;;;20.00;17.50;;;;;17.09;66.03;101369.94;5053221;28;45534;-49
2022/09/11 06:31:05;;;;;;;;;20.50;15.75;;;;;17.09;66.37;101367.28;5074268;27;47038;-46
2022/09/11 06:33:32;;;;;;;;;17.75;14.75;;;;;17.10;66.28;101363.72;5071534;28;45460;-47
2022/09/11 06:36:02;;;;;;;;;18.25;18.25;;;;;17.10;66.18;101370.78;5075152;27;45501;-47
2022/09/11 06:38:28;;;;;;;;;18.25;15.50;;;;;17.13;66.42;101371.50;5070508;27;45492;-48
2022/09/11 06:40:54;;;;;;;;;18.50;16.25;;;;;17.14;66.65;101369.72;5057151;28;46268;-45
2022/09/11 06:43:19;;;;;;;;;21.00;18.00;;;;;17.13;66.25;101370.66;5071593;28;45426;-46
2022/09/11 06:45:47;;;;;;;;;18.75;16.00;;;;;17.15;66.17;101371.44;5054898;28;45361;-49
2022/09/11 06:48:15;;;;;;;;;22.00;16.75;;;;;17.13;66.38;101371.50;5071923;27;45307;-48
2022/09/11 06:50:41;;;;;;;;;20.75;17.00;;;;;17.14;66.06;101369.72;5070324;27;46292;-44
2022/09/11 06:53:07;;;;;;;;;22.75;18.50;;;;;17.16;66.39;101374.03;5050990;28;45376;-48
2022/09/11 06:55:33;;;;;;;;;23.25;21.50;;;;;17.16;66.12;101374.03;5066599;27;45296;-46
2022/09/11 06:57:58;;;;;;;;;26.25;21.50;;;;;17.20;66.28;101375.59;5060033;27;45230;-48
2022/09/11 07:00:24;;;;;;;;;20.25;19.50;;;;;17.22;66.41;101367.59;5056621;28;72641;-46
2022/09/11 07:02:53;;;;;;;;;20.50;18.75;;;;;17.23;66.31;101375.47;5053980;28;45417;-46
2022/09/11 07:05:21;;;;;;;;;22.25;20.50;;;;;17.25;66.41;101372.75;5072957;27;45236;-45
2022/09/11 07:07:47;;;;;;;;;27.25;21.75;;;;;17.26;66.35;101375.34;5064376;28;45513;-46
2022/09/11 07:10:12;;;;;;;;;22.50;19.75;;;;;17.25;66.38;101368.31;5075366;27;46228;-45
2022/09/11 07:12:38;;;;;;;;;22.00;18.75;;;;;17.25;66.34;101370.13;5062604;28;46526;-47
2022/09/11 07:15:07;;;;;;;;;20.25;19.00;;;;;17.25;66.92;101375.41;5064547;28;69154;-44
2022/09/11 07:17:32;;;;;;;;;30.75;24.75;;;;;17.24;66.85;101374.53;5075027;28;45504;-44
2022/09/11 07:19:58;;;;;;;;;25.75;22.50;;;;;17.26;67.02;101374.47;5043535;28;47665;-45
2022/09/11 07:22:23;;;;;;;;;25.00;21.25;;;;;17.29;67.14;101370.84;5069545;28;45347;-47
2022/09/11 07:24:49;;;;;;;;;25.50;20.50;;;;;17.29;66.85;101363.75;5052684;28;64994;-44
2022/09/11 07:27:15;;;;;;;;;23.50;20.50;;;;;17.33;67.16;101370.59;5076076;28;45439;-44
2022/09/11 07:29:40;;;;;;;;;32.00;25.25;;;;;17.35;66.83;101368.78;5070476;28;45347;-49
2022/09/11 07:32:06;;;;;;;;;26.00;23.25;;;;;17.40;66.80;101380.00;5075751;28;73344;-50
2022/09/11 07:34:31;;;;;;;;;28.00;23.75;;;;;17.45;66.62;101375.34;5082436;28;45294;-47
2022/09/11 07:36:56;;;;;;;;;24.50;23.25;;;;;17.50;66.58;101369.84;5073926;28;47130;-49
2022/09/11 07:39:22;;;;;;;;;24.75;19.75;;;;;17.54;66.78;101370.56;5072557;28;45644;-44
2022/09/11 07:41:48;;;;;;;;;21.50;20.00;;;;;17.55;66.79;101372.31;5062864;28;45378;-48
2022/09/11 07:44:14;;;;;;;;;26.75;24.50;;;;;17.56;66.46;101372.22;5073605;28;45305;-44
2022/09/11 07:46:40;;;;;;;;;27.25;23.50;;;;;17.58;66.61;101380.09;5063300;28;45446;-44
2022/09/11 07:49:06;;;;;;;;;37.25;29.00;;;;;17.58;66.72;101378.31;5038320;28;47923;-44
2022/09/11 07:51:33;;;;;;;;;32.00;28.75;;;;;17.63;66.92;101378.09;5070598;28;45698;-47
2022/09/11 07:53:58;;;;;;;;;34.75;28.25;;;;;17.65;66.94;101373.56;5039676;28;45372;-45
2022/09/11 07:56:26;;;;;;;;;33.50;29.50;;;;;17.71;66.67;101373.31;5072768;28;45502;-45
2022/09/11 07:58:53;;;;;;;;;29.75;26.00;;;;;17.76;66.55;101375.72;5053002;28;47926;-45
2022/09/11 08:01:28;;;;;;;;;28.25;26.25;;;;;17.80;66.63;101375.50;5076845;28;46222;-44
2022/09/11 08:04:02;;;;;;;;;32.00;29.00;;;;;17.86;66.59;101376.19;5056066;28;45485;-48
2022/09/11 08:06:30;;;;;;;;;28.75;26.25;;;;;17.88;66.94;101375.16;5070824;27;45475;-46
2022/09/11 08:08:57;;;;;;;;;34.25;25.50;;;;;17.93;66.51;101374.97;5075560;27;47283;-41
2022/09/11 08:11:24;;;;;;;;;27.75;23.25;;;;;17.98;66.64;101370.31;5062615;27;45324;-41
2022/09/11 08:13:51;;;;;;;;;28.00;27.50;;;;;18.03;66.26;101371.81;5076918;28;45363;-41
2022/09/11 08:16:20;;;;;;;;;31.75;27.75;;;;;18.07;66.28;101356.63;5069966;27;45555;-42
2022/09/11 08:18:46;;;;;;;;;32.00;27.50;;;;;18.17;66.14;101365.00;5054952;28;46641;-41
2022/09/11 08:21:13;;;;;;;;;32.25;28.50;;;;;18.24;66.08;101363.75;5071509;27;45472;-41
2022/09/11 08:23:40;;;;;;;;;28.75;27.50;;;;;18.31;65.88;101362.53;5061801;28;46504;-41
2022/09/11 08:26:07;;;;;;;;;34.00;28.00;;;;;18.35;65.95;101363.22;5079877;28;45520;-40
2022/09/11 08:28:34;;;;;;;;;39.25;32.00;;;;;18.36;65.62;101362.28;5047957;27;45439;-40
2022/09/11 08:31:03;;;;;;;;;30.25;27.75;;;;;18.42;65.59;101366.44;5077153;28;45411;-41
2022/09/11 08:33:29;;;;;;;;;29.00;27.25;;;;;18.47;65.26;101361.72;5071746;27;45493;-40
2022/09/11 08:35:56;;;;;;;;;27.25;26.50;;;;;18.51;65.42;101365.97;5079534;28;45403;-41
2022/09/11 08:38:22;;;;;;;;;40.00;28.50;;;;;18.56;65.18;101371.91;5078190;28;46689;-40
2022/09/11 08:40:47;;;;;;;;;31.50;27.50;;;;;18.60;65.21;101366.34;5070689;27;61548;-40
2022/09/11 08:43:21;;;;;;;;;31.50;29.00;;;;;18.66;64.89;101367.84;5076452;28;64406;-40
2022/09/11 08:45:48;;;;;;;;;25.75;24.50;;;;;18.72;64.91;101378.13;5080677;28;45441;-40
2022/09/11 08:48:13;;;;;;;;;30.25;26.75;;;;;18.79;65.05;101382.19;5056244;28;45852;-39
2022/09/11 08:50:41;;;;;;;;;29.00;26.00;;;;;18.83;64.63;101382.06;5079197;28;45335;-40
2022/09/11 08:53:14;;;;;;;;;26.75;25.75;;;;;18.90;64.68;101378.16;5061911;28;45308;-41
2022/09/11 08:55:45;;;;;;;;;29.25;25.00;;;;;18.96;64.59;101376.06;5074751;27;45723;-42
2022/09/11 08:58:35;;;;;;;;;31.25;29.25;;;;;19.04;64.51;101391.56;5059515;27;45509;-41
2022/09/11 09:01:42;;;;;;;;;29.50;25.50;;;;;19.11;64.14;101392.94;5063884;28;45341;-40
2022/09/11 09:04:16;;;;;;;;;30.25;25.25;;;;;19.20;64.18;101393.41;5066472;28;45503;-40
2022/09/11 09:06:48;;;;;;;;;29.75;23.50;;;;;19.25;63.95;101391.38;5051503;28;45663;-48
2022/09/11 09:09:37;;;;;;;;;29.25;26.25;;;;;19.30;63.87;101389.31;5074607;28;45580;-46
2022/09/11 09:12:19;;;;;;;;;29.25;27.75;;;;;19.35;63.83;101390.81;5054472;28;45128;-47
2022/09/11 09:15:12;;;;;;;;;32.00;30.00;;;;;19.42;63.93;101382.50;5074207;28;45256;-45
2022/09/11 09:17:42;;;;;;;;;22.50;19.25;;;;;19.47;63.45;101388.44;5071824;28;45354;-44
2022/09/11 09:20:12;;;;;;;;;21.50;17.00;;;;;19.57;63.17;101394.09;5053269;27;45270;-44
2022/09/11 09:23:14;;;;;;;;;15.75;13.75;;;;;19.64;62.62;101387.53;5052734;28;45289;-45
2022/09/11 09:25:41;;;;;;;;;15.25;14.25;;;;;19.69;62.71;101396.94;5059024;27;45323;-45
2022/09/11 09:28:18;;;;;;;;;18.25;13.50;;;;;19.74;61.52;101386.09;5069119;28;45425;-45
2022/09/11 09:30:50;;;;;;;;;19.25;15.25;;;;;19.80;60.54;101396.38;5044248;28;46427;-45
2022/09/11 09:33:26;;;;;;;;;17.50;14.75;;;;;19.84;61.50;101392.59;5052151;28;45383;-44
2022/09/11 09:35:53;;;;;;;;;16.25;14.25;;;;;19.90;61.10;101391.41;5072342;27;45661;-46
2022/09/11 09:38:21;;;;;;;;;15.75;14.50;;;;;19.97;61.24;101389.25;5041517;28;46163;-44
2022/09/11 09:41:10;;;;;;;;;20.75;14.25;;;;;20.04;61.29;101391.50;5057814;28;46541;-45
2022/09/11 09:44:03;;;;;;;;;13.75;12.00;;;;;20.14;60.31;101394.50;5078531;27;45366;-44
2022/09/11 09:46:47;;;;;;;;;15.00;10.75;;;;;20.18;59.96;101396.03;5045719;27;45416;-45
2022/09/11 09:49:27;;;;;;;;;11.50;9.75;;;;;20.24;59.91;101395.69;5076245;28;45608;-47
2022/09/11 09:51:58;;;;;;;;;11.25;8.00;;;;;20.28;59.92;101383.94;5057568;28;46584;-45
2022/09/11 09:54:25;;;;;;;;;10.25;9.00;;;;;20.32;59.30;101375.78;5059699;28;45513;-48
2022/09/11 09:57:10;;;;;;;;;9.75;7.75;;;;;20.41;59.46;101383.22;5045773;27;45457;-46
2022/09/11 09:59:42;;;;;;;;;10.25;7.50;;;;;20.47;59.21;101386.38;5069534;27;45606;-46
2022/09/11 10:02:07;;;;;;;;;10.00;8.75;;;;;20.55;59.36;101385.91;5057181;28;46384;-48
2022/09/11 10:04:33;;;;;;;;;9.75;8.75;;;;;20.58;58.74;101380.44;5071172;28;67622;-46
2022/09/11 10:07:09;;;;;;;;;13.00;10.75;;;;;20.64;58.53;101377.44;5059664;28;64769;-45
2022/09/11 10:09:35;;;;;;;;;11.25;11.25;;;;;20.71;59.41;101382.41;5070395;28;45407;-47
2022/09/11 10:12:07;;;;;;;;;12.00;10.50;;;;;20.74;58.06;101369.78;5070137;27;46163;-48
2022/09/11 10:14:49;;;;;;;;;8.75;6.50;;;;;20.80;58.09;101376.53;5065743;28;45451;-49
2022/09/11 10:17:31;;;;;;;;;11.25;9.00;;;;;20.82;57.67;101380.81;5044006;28;45313;-46
2022/09/11 10:20:15;;;;;;;;;9.00;9.00;;;;;20.84;58.00;101370.94;5063975;28;45533;-46
2022/09/11 10:22:41;;;;;;;;;8.00;8.00;;;;;20.92;57.59;101374.94;5071622;28;45467;-48
2022/09/11 10:25:25;;;;;;;;;10.25;9.25;;;;;20.95;57.24;101370.28;5043269;28;65933;-45
2022/09/11 10:28:08;;;;;;;;;9.75;8.00;;;;;21.03;56.46;101375.13;5059428;28;45339;-45
2022/09/11 10:30:36;;;;;;;;;12.25;10.75;;;;;21.10;57.50;101373.81;5081019;27;45491;-50
2022/09/11 10:33:05;;;;;;;;;10.00;9.00;;;;;21.14;57.20;101371.81;5073095;28;46278;-49
2022/09/11 10:35:32;;;;;;;;;9.25;7.50;;;;;21.22;56.67;101373.06;5043645;28;45155;-45
2022/09/11 10:38:04;;;;;;;;;11.00;11.00;;;;;21.29;56.66;101368.22;5077206;27;45253;-47
2022/09/11 10:40:30;;;;;;;;;17.00;16.75;;;;;21.35;56.12;101364.31;5069990;28;45265;-47
2022/09/11 10:42:55;;;;;;;;;12.50;10.75;;;;;21.42;56.63;101362.97;5041890;28;45426;-47
2022/09/11 10:45:21;;;;;;;;;11.50;9.75;;;;;21.48;56.32;101362.63;5041125;28;46342;-50
2022/09/11 10:47:49;;;;;;;;;15.00;10.75;;;;;21.52;56.00;101356.16;5064818;28;45308;-47
2022/09/11 10:50:15;;;;;;;;;10.50;8.75;;;;;21.59;55.63;101359.28;5078010;28;45316;-47
2022/09/11 10:53:05;;;;;;;;;15.25;13.00;;;;;21.67;55.70;101351.66;5072556;28;46101;-48
2022/09/11 10:55:38;;;;;;;;;14.75;13.00;;;;;21.75;55.67;101353.84;5061669;28;45183;-51
2022/09/11 10:58:13;;;;;;;;;14.25;10.75;;;;;21.83;55.34;101343.53;5050096;28;45431;-51
2022/09/11 11:00:38;;;;;;;;;10.75;9.00;;;;;21.89;55.31;101339.63;5076861;27;45419;-50
2022/09/11 11:03:16;;;;;;;;;10.50;9.00;;;;;21.92;53.83;101340.28;5080358;28;45391;-49
2022/09/11 11:06:05;;;;;;;;;6.75;6.75;;;;;21.92;55.37;101332.28;5078601;27;45260;-49
2022/09/11 11:08:49;;;;;;;;;7.00;7.00;;;;;21.88;53.98;101327.25;5078831;27;45291;-47
2022/09/11 11:11:42;;;;;;;;;8.25;7.00;;;;;21.89;53.87;101332.47;5073819;28;45362;-48
2022/09/11 11:14:46;;;;;;;;;10.50;7.50;;;;;21.92;54.90;101326.97;5078936;27;45388;-51
2022/09/11 11:17:42;;;;;;;;;10.50;8.50;;;;;21.92;53.36;101321.63;5069158;27;45728;-48
2022/09/11 11:20:28;;;;;;;;;8.50;6.50;;;;;21.93;53.96;101318.00;5052036;27;45261;-50
2022/09/11 11:23:23;;;;;;;;;8.50;6.00;;;;;21.95;54.17;101325.91;5069706;27;45385;-50
2022/09/11 11:26:21;;;;;;;;;5.50;5.00;;;;;21.94;52.73;101322.38;5048682;28;46537;-50
2022/09/11 11:28:57;;;;;;;;;6.00;5.75;;;;;21.93;53.32;101326.00;5078259;27;45497;-50
2022/09/11 11:31:46;;;;;;;;;9.50;7.25;;;;;21.94;53.36;101324.19;5080989;27;45327;-51